Tiempo atmosférico en la estación meteorológica de Cazalla De La Sierra, Sevilla (550 m.)



Fecha
DESCASC
Temp. máxima en grados centígrados (hora)
DESCASC
Temp. mínima en grados centígrados (hora)
DESCASC
Temp. media en grados centígrados
DESCASC
Racha de viento máxima en m/sg (hora)
DESCASC
Velocidad máxima media en intervalos de 10 minutos(hora)
DESCASC
Precipitaciones diarias en mm
DESCASC
Precipitaciones de 00:00 a 06:00 en mm
DESCASC
Precipitaciones de 06:00 a 12:00 en mm
DESCASC
Precipitaciones de 12:00 a 18:00 en mm
DESCASC
Precipitaciones de 18:00 a 24:00 en mm
DESCASC
10-07-2020 34.9 (16:30) 15 (07:20) 25 6.67 (17:10) 2.5 (19:30) 0 0 0 0 0
09-07-2020 32.6 (18:30) 13.7 (06:50) 23.1 6.67 (19:00) 3.06 (19:30) 0 0 0 0 0
08-07-2020 34.9 (16:30) 20.9 (05:30) 27.9 10.28 (16:40) 4.17 (17:50) 0 0 0 0 0
07-07-2020 39.7 (17:40) 19.3 (06:20) 29.5 8.06 (16:50) 3.89 (13:40) 0 0 0 0 0
06-07-2020 38.8 (17:10) 16.5 (00:00) 27.6 6.39 (17:20) 3.06 (22:10) 0 0 0 0 0
05-07-2020 36.6 (17:30) 16.1 (07:10) 26.3 8.33 (13:20) 3.33 (13:20) 0 0 0 0 0
04-07-2020 36.3 (17:30) 13.1 (07:10) 24.7 5.28 (15:40) 1.67 (14:50) 0 0 0 0 0
03-07-2020 33.7 (19:10) 12.7 (07:10) 23.2 6.67 (15:20) 2.78 (01:30) 0 0 0 0 0
02-07-2020 33.8 (17:20) 15.4 (00:00) 24.6 9.72 (16:20) 4.72 (13:50) 0 0 0 0 0
01-07-2020 33.1 (17:20) 13.9 (00:00) 23.5 6.94 (15:50) 3.33 (16:40) 0 0 0 0 0
30-06-2020 34.3 (16:30) 17.3 (00:00) 25.8 11.39 (20:40) 3.89 (19:10) 0 0 0 0 0
29-06-2020 36.4 (16:40) 16.9 (00:00) 26.7 6.11 (15:40) 2.78 (15:40) 0 0 0 0 0
28-06-2020 35.7 (17:10) 15.9 (00:00) 25.8 6.67 (14:40) 3.06 (18:10) 0 0 0 0 0
27-06-2020 32.5 (18:00) 14.3 (00:00) 23.4 6.94 (17:40) 3.06 (14:50) 0 0 0 0 0
26-06-2020 30.3 (18:30) 14.7 (00:00) 22.5 8.61 (17:50) 3.33 (18:30) 0 0 0 0 0
25-06-2020 29.7 (15:40) 14.6 (00:00) 22.2 7.78 (18:20) 3.33 (15:20) 0 0 0 0 0
24-06-2020 34.4 (16:40) 16.5 (00:00) 25.5 6.94 (14:40) 3.61 (00:20) 0 0 0 0 0
23-06-2020 36.4 (16:40) 15.8 (00:00) 26.1 8.33 (12:40) 3.06 (12:50) 0 0 0 0 0
22-06-2020 36.4 (15:50) 14.5 (00:00) 25.5 7.78 (14:20) 3.06 (14:20) 0 0 0 0 0
21-06-2020 35.1 (18:50) 13.3 (00:00) 24.2 9.72 (17:10) 2.78 (19:00) 0 0 0 0 0
20-06-2020 32.9 (17:30) 12 (00:00) 22.5 6.11 (13:10) 2.78 (14:10) 0 0 0 0 0
19-06-2020 29.1 (17:30) 11.7 (00:00) 20.4 9.44 (16:40) 3.33 (19:20) 0 0 0 0 0
18-06-2020 29.1 (17:10) 10.1 (07:00) 19.6 7.5 (17:50) 2.78 (12:30) 0 0 0 0 0
17-06-2020 28 (16:50) 10.9 (00:00) 19.4 8.89 (16:20) 4.44 (16:20) 0 0 0 0 0
16-06-2020 27.1 (14:50) 13.2 (00:00) 20.2 9.44 (15:10) 5.28 (17:20) 0 0 0 0 0
15-06-2020 28.1 (18:30) 9.8 (00:00) 19 8.61 (12:00) 3.89 (13:50) 0 0 0 0 0

Gráficas

Temp. máximas Temp. mínimas Temp. medias Precipitaciones Rachas de viento máximas Velocidades máximas media en intervalos de 10 minutos

Datos horarios

Fecha y hora oficial Temperatura (ºC) Velocidad del viento (km/h) Dirección del viento Racha (km/h) Dirección de racha Precipitación (mm) Presión (hPa) Tendencia (hPa) Humedad (%)
2020-07-14 23:00:00 26.5 5 Sudoeste 21 Sur 0 949.1 1.1 40
2020-07-14 22:00:00 28.8 6 Sur 22 Sudoeste 0 948.6 1 35
2020-07-14 21:00:00 31.6 7 Sudoeste 24 Sudoeste 0 948.3 0 30
2020-07-14 20:00:00 32.8 11 Sudoeste 29 Sudoeste 0 948 -1.1 28
2020-07-14 19:00:00 33.7 10 Sudoeste 23 Sudoeste 0 947.6 -2.2 26
2020-07-14 18:00:00 34.5 8 Sudoeste 27 Sudoeste 0 948.3 -2.1 28
2020-07-14 17:00:00 34.6 7 Sur 27 Sudoeste 0 949.1 -1.9 28
2020-07-14 16:00:00 34.7 7 Sudoeste 27 Sur 0 949.8 -1.6 27
2020-07-14 15:00:00 34 6 Sudoeste 22 Sudoeste 0 950.4 -1.5 30
2020-07-14 14:00:00 33.1 6 Oeste 21 Sudoeste 0 951 -0.9 31
2020-07-14 13:00:00 31.4 6 Sudoeste 25 Oeste 0 951.4 -0.9 35
2020-07-14 12:00:00 29.3 6 Sudoeste 21 Noroeste 0 951.9 -0.4 39
2020-07-14 11:00:00 27.6 13 Oeste 22 Oeste 0 951.9 -0.3 43
2020-07-14 10:00:00 25.7 8 Oeste 18 Oeste 0 952.3 0 49
2020-07-14 09:00:00 23.2 10 Oeste 17 Oeste 0 952.3 -0.1 58
2020-07-14 08:00:00 19.4 3 Oeste 10 Oeste 0 952.2 -- 72
2020-07-14 07:00:00 19.7 6 Oeste 14 Oeste 0 952.3 -- 71
2020-07-14 06:00:00 18.6 6 Oeste 12 Oeste 0 952.4 -- 76
2020-07-14 05:00:00 18.7 4 Noroeste 10 Noroeste 0 952.5 -- 73
2020-07-14 04:00:00 19.8 3 Oeste 10 Oeste 0 952.8 -- 68
2020-07-14 03:00:00 21.1 4 Oeste 9 Sudoeste 0 953.2 -- 63
2020-07-14 02:00:00 23.2 0 Calma 11 Sudoeste 0 953.2 -- 57
2020-07-14 01:00:00 23.1 0 Calma 5 Norte 0 953.1 -- 60
2020-07-14 00:00:00 24.2 0 Calma 7 Noroeste 0 952.8 -- 57
2020-07-13 23:00:00 26.9 2 Oeste 17 Sudoeste 0 952.9 -- 48
2020-07-13 22:00:00 29.5 6 Sudoeste 18 Sur 0 952.6 0.5 41
2020-07-13 21:00:00 32.8 5 Sur 19 Sudoeste 0 952.2 -0.2 36
2020-07-13 20:00:00 34.3 9 Oeste 17 Noroeste 0 951.9 -1 25
2020-07-13 19:00:00 34.4 4 Noroeste 17 Norte 0 952.1 -1.3 26
2020-07-13 18:00:00 35.1 3 Noroeste 21 Noroeste 0 952.4 -1.3 23
2020-07-13 17:00:00 36 6 Norte 25 Norte 0 952.9 -1.4 22
2020-07-13 16:00:00 36.4 4 Noroeste 27 Oeste 0 953.4 -1.4 22
2020-07-13 15:00:00 34.4 6 Oeste 22 Noroeste 0 953.7 -1.1 27
2020-07-13 14:00:00 33.6 5 Oeste 39 Oeste 0 954.3 -0.6 30
2020-07-13 13:00:00 31.3 8 Sudoeste 17 Sudoeste 0 954.8 0 39
2020-07-13 12:00:00 29.2 5 Sur 14 Sudoeste 0 954.8 0.3 46
2020-07-13 11:00:00 26.9 5 Sudoeste 13 Sur 0 954.9 1 54
2020-07-13 10:00:00 24.3 3 Oeste 11 Oeste 0 954.8 1 67
2020-07-13 09:00:00 21.7 5 Sudoeste 9 Sudoeste 0 954.5 0.9 79
2020-07-13 08:00:00 18.5 0 Calma 4 Oeste 0 953.9 0.3 92
2020-07-13 07:00:00 17.4 2 Oeste 7 Noroeste 0 953.8 -- 93
2020-07-13 06:00:00 18.1 2 Oeste 5 Oeste 0 953.6 0 89
2020-07-13 05:00:00 18.7 0 Calma 8 Sur 0 953.6 -0.1 82
2020-07-13 04:00:00 20.1 0 Calma 8 Sur 0 953.7 0.3 73
2020-07-13 03:00:00 20.5 0 Calma 5 Este 0 953.6 0.6 68
2020-07-13 02:00:00 21 2 Este 6 Este 0 953.7 1.2 66
2020-07-13 01:00:00 22.4 4 Este 8 Este 0 953.4 1.4 61
2020-07-13 00:00:00 24.6 3 Este 6 Noroeste 0 953 1.6 55
2020-07-12 23:00:00 27.4 0 Calma 14 Sudoeste 0 952.5 1.5 44
2020-07-12 22:00:00 29.9 5 Sur 17 Sur 0 952 1.1 37
2020-07-12 21:00:00 31.6 5 Sudoeste 18 Sudoeste 0 951.4 0.1 29
2020-07-12 20:00:00 34.4 5 Sudoeste 15 Oeste 0 951 -0.7 23
2020-07-12 19:00:00 36 6 Sudoeste 19 Sudoeste 0 950.9 -1.3 21
2020-07-12 18:00:00 36.3 2 Sudoeste 21 Noroeste 0 951.3 -1.3 20
2020-07-12 17:00:00 36.2 4 Sudoeste 20 Sudoeste 0 951.7 -1.2 21
2020-07-12 16:00:00 36.1 2 Sur 17 Sur 0 952.2 -1 22
2020-07-12 15:00:00 34.6 4 Este 18 Sudeste 0 952.6 -- 24
2020-07-12 14:00:00 33.6 3 Sudeste 19 Sur 0 952.9 0 26
2020-07-12 13:00:00 32.8 4 Sudeste 18 Sur 0 953.2 -- 31
2020-07-12 12:00:00 32 6 Sudeste 16 Sur 0 953 -- 33
2020-07-12 11:00:00 30.6 5 Sudeste 18 Sur 0 952.9 -- 33
2020-07-12 10:00:00 28 5 Este 12 Este 0 952.5 1.2 43
2020-07-12 09:00:00 24 2 Este 7 Este 0 951.8 -- 54
2020-07-12 08:00:00 19 3 Sudeste 7 Este 0 951.6 -- 69
2020-07-12 07:00:00 18.3 4 Sudeste 7 Este 0 951.3 -- 70
2020-07-12 06:00:00 18.7 2 Sudeste 6 Este 0 951.1 -- 66
2020-07-12 05:00:00 20.1 3 Este 6 Este 0 951 -- 62
2020-07-12 04:00:00 21.9 0 Calma 10 Noroeste 0 950.8 -- 55
2020-07-12 03:00:00 21.2 3 Sudeste 7 Este 0 950.9 -- 60
2020-07-12 02:00:00 23.1 3 Este 7 Este 0 950.9 -- 54
2020-07-12 01:00:00 24.1 0 Calma 7 Este 0 950.7 -- 52
2020-07-12 00:00:00 26.1 5 Este 14 Sur 0 950.5 -- 43
2020-07-11 23:00:00 26.1 2 Sudeste 10 Sur 0 950.2 -- 40
2020-07-11 22:00:00 28 0 Calma 19 Oeste 0 949.5 -- 34
2020-07-11 21:00:00 30.3 6 Oeste 24 Oeste 0 950 -- 28
2020-07-11 20:00:00 32 6 Sudoeste 19 Sudoeste 0 950.2 -- 24
2020-07-11 19:00:00 34.1 5 Sur 16 Sur 0 949.7 -0.7 25
2020-07-11 18:00:00 36 5 Sur 22 Sudeste 0 950.1 -- 20
2020-07-11 17:00:00 36.5 10 Sur 31 Sudoeste 0 950.5 -- 18
2020-07-11 16:00:00 36.2 7 Sudeste 27 Sur 0 950.4 -- 20
2020-07-11 15:00:00 36.1 6 Sudeste 28 Este 0 950.9 -- 23
2020-07-11 14:00:00 34.6 6 Sudeste 25 Este 0 951.2 -- 23
2020-07-11 13:00:00 33.8 8 Sudeste 24 Este 0 951.3 -- 25
2020-07-11 12:00:00 32.1 4 Sudeste 20 Sur 0 951.6 -- 28
2020-07-11 11:00:00 29.9 6 Sur 17 Sur 0 951.6 -- 33
2020-07-11 10:00:00 28.1 4 Sudeste 18 Sur 0 951.4 -- 36
2020-07-11 09:00:00 24.1 3 Este 5 Nordeste 0 951.1 -- 49
2020-07-11 08:00:00 18.9 3 Sudeste 5 Este 0 950.8 -- 72
2020-07-11 07:00:00 17.9 3 Sudeste 8 Sudoeste 0 950.4 -- 74
2020-07-11 06:00:00 18.5 0 Calma 5 Sur 0 950.4 -- 71
2020-07-11 05:00:00 19.7 2 Este 6 Sudeste 0 950 -- 65
2020-07-11 04:00:00 20.1 4 Sudeste 7 Este 0 949.9 -- 63
2020-07-11 03:00:00 20.5 3 Este 6 Este 0 950.2 -- 62
2020-07-11 02:00:00 20.9 4 Este 7 Este 0 950.2 -0.3 62
2020-07-11 01:00:00 22.2 3 Sudeste 7 Este 0 950.4 -- 61
2020-07-11 00:00:00 23.5 2 Este 3 Este 0 950.7 -- 57
2020-07-10 23:00:00 26.3 0 Calma 9 Oeste 0 950.5 -- 48
2020-07-10 22:00:00 29.2 4 Sudoeste 16 Sudoeste 0 950 -- 40
2020-07-10 21:00:00 31.4 6 Sudoeste 19 Oeste 0 949.9 -- 33
2020-07-10 20:00:00 33 9 Sudoeste 22 Sudoeste 0 949.6 -- 25
2020-07-10 19:00:00 34.6 5 Sudoeste 19 Sudoeste 0 949.5 -- 25
2020-07-10 18:00:00 34.3 5 Sur 24 Oeste 0 949.6 -- 25
2020-07-10 17:00:00 34.5 6 Oeste 21 Sudoeste 0 950.2 -- 25
2020-07-10 16:00:00 34.1 4 Sudeste 22 Sur 0 950.5 -- 27
2020-07-10 15:00:00 34.2 5 Sudeste 18 Sur 0 951 -- 30
2020-07-10 14:00:00 32.3 6 Sur 19 Sudoeste 0 951.7 0.1 35
2020-07-10 13:00:00 31.8 5 Sur 15 Sudoeste 0 951.7 -- 33
2020-07-10 12:00:00 30.4 5 Sur 16 Sur 0 952 -- 38
2020-07-10 11:00:00 27.8 5 Sudoeste 12 Oeste 0 951.6 0.1 41
2020-07-10 10:00:00 27.4 3 Sudeste 6 Sudeste 0 951.8 -- 40
2020-07-10 09:00:00 22.6 2 Este 7 Este 0 951.5 -- 55
2020-07-10 08:00:00 17 5 Este 9 Este 0 951.5 -- 69
2020-07-10 07:00:00 15.2 4 Sudeste 7 Sudeste 0 951.2 -- 76
2020-07-10 06:00:00 16.2 3 Sudeste 6 Este 0 951.2 -- 72
2020-07-10 05:00:00 17.2 3 Sudeste 10 Norte 0 951.4 -- 70
2020-07-10 04:00:00 17.2 0 Calma 9 Sudeste 0 951.8 -- 77
2020-07-10 03:00:00 16.3 4 Sudeste 8 Este 0 952 -- 81
2020-07-10 02:00:00 17.1 2 Este 5 Este 0 952.2 -- 77
2020-07-10 01:00:00 18.5 0 Calma 7 Este 0 952.4 -- 71
2020-07-10 00:00:00 20.4 3 Este 5 Este 0 952.4 -- 65
2020-07-09 23:00:00 22.8 2 Oeste 10 Oeste 0 952 -- 55
2020-07-09 22:00:00 25.9 5 Sur 19 Sudoeste 0 951.5 -- 46
2020-07-09 21:00:00 28.4 7 Sudoeste 22 Sudoeste 0 951.4 -- 38
2020-07-09 20:00:00 30.3 9 Sudoeste 22 Sudoeste 0 951 -- 34
2020-07-09 19:00:00 31.4 9 Sudoeste 24 Sudoeste 0 951 -- 29
2020-07-09 18:00:00 32.2 5 Sudoeste 21 Sudoeste 0 951.4 -- 24
2020-07-09 17:00:00 32.1 5 Sudoeste 21 Oeste 0 952.3 -- 26
2020-07-09 16:00:00 31.1 10 Oeste 21 Oeste 0 953 -- 28
2020-07-09 15:00:00 30.3 6 Noroeste 23 Oeste 0 953.1 -- 30
2020-07-09 14:00:00 28.5 3 Sudoeste 17 Sur 0 953.6 -- 34
2020-07-09 13:00:00 26.5 6 Sudoeste 19 Oeste 0 953.9 -- 43
2020-07-09 12:00:00 25.5 5 Sudoeste 17 Sur 0 953.8 -- 50
2020-07-09 11:00:00 23.2 5 Sudoeste 15 Sudoeste 0 953.8 -- 56
2020-07-09 10:00:00 20.6 3 Oeste 11 Oeste 0 953.5 -- 67
2020-07-09 09:00:00 18 3 Noroeste 7 Sudoeste 0 953.1 -- 75
2020-07-09 08:00:00 14.8 0 Calma 11 Sudoeste 0 952.9 -- 71
2020-07-09 07:00:00 14.9 6 Sudoeste 13 Sudoeste 0 952.3 -- 70
2020-07-09 06:00:00 14.2 0 Calma 7 Este 0 952.3 -- 65
2020-07-09 05:00:00 14.9 3 Este 6 Este 0 952.3 -- 72
2020-07-09 04:00:00 14.9 0 Calma 5 Sur 0 952.4 -- 73
2020-07-09 03:00:00 16.2 0 Calma 7 Noroeste 0 952.6 -- 62
2020-07-09 02:00:00 19.2 6 Este 10 Este 0 952.6 -- 49
2020-07-09 01:00:00 20 3 Este 13 Sudoeste 0 952.6 -- 45
2020-07-09 00:00:00 22.8 4 Sur 18 Sur 0 952.2 -- 38
2020-07-08 23:00:00 24.6 6 Sudoeste 19 Sudoeste 0 951.4 -- 29
2020-07-08 22:00:00 26.4 6 Sudoeste 21 Sudoeste 0 950.9 -- 25
2020-07-08 21:00:00 29.2 9 Sudoeste 29 Oeste 0 950.4 -- 21
2020-07-08 20:00:00 31.5 10 Sudoeste 29 Sudoeste 0 950 -- 20
2020-07-08 19:00:00 32.7 10 Sudoeste 33 Sudoeste 0 949.6 -- 20
2020-07-08 18:00:00 33.2 12 Sudoeste 35 Sudoeste 0 950 -- 21
2020-07-08 17:00:00 34.2 13 Sudoeste 37 Sudoeste 0 950.4 -- 18
2020-07-08 16:00:00 33.7 11 Sudoeste 31 Oeste 0 950.6 -- 20
2020-07-08 15:00:00 33.8 9 Sudoeste 29 Sudoeste 0 950.8 -- 21
2020-07-08 14:00:00 33.1 7 Sudoeste 25 Oeste 0 950.9 -- 23
2020-07-08 13:00:00 32.4 8 Sur 21 Sur 0 951.1 -- 26
2020-07-08 12:00:00 32.3 7 Sur 16 Sur 0 950.7 -- 26
2020-07-08 11:00:00 31 4 Sudoeste 12 Sudoeste 0 950.7 -- 26
2020-07-08 10:00:00 28 5 Oeste 8 Noroeste 0 950.4 -- 29
2020-07-08 09:00:00 24.9 0 Calma 8 Este 0 949.8 -- 39
2020-07-08 08:00:00 22.1 5 Este 8 Sudeste 0 949.7 -- 42
2020-07-08 07:00:00 21.6 0 Calma 8 Este 0 949.7 -- 44
2020-07-08 06:00:00 21.3 4 Este 10 Oeste 0 949.7 -- 46
2020-07-08 05:00:00 22.2 3 Sudeste 7 Este 0 949.5 -- 40
2020-07-08 04:00:00 23.6 3 Sudeste 8 Este 0 950.2 -- 40
2020-07-08 03:00:00 23.3 4 Este 7 Este 0 950.7 -- 43
2020-07-08 02:00:00 23.1 3 Este 4 Este 0 951.3 -- 46
2020-07-08 01:00:00 25.2 0 Calma 9 Oeste 0 951.9 -- 39
2020-07-08 00:00:00 28 0 Calma 13 Sur 0 952 -- 34
2020-07-07 23:00:00 30.4 2 Sur 11 Sudeste 0 951.8 -- 30
2020-07-07 22:00:00 32.5 4 Sur 13 Sur 0 951.5 -- 26
2020-07-07 21:00:00 34.6 6 Sudoeste 22 Sudoeste 0 951.7 -- 23
2020-07-07 20:00:00 36.6 5 Sur 20 Sudoeste 0 951.4 -1.1 20
2020-07-07 19:00:00 38.6 10 Oeste 22 Oeste 0 951.5 -1.4 15
2020-07-07 18:00:00 39.2 7 Oeste 25 Oeste 0 951.9 -1.3 15
2020-07-07 17:00:00 39.1 12 Oeste 29 Oeste 0 952.5 -0.9 15
2020-07-07 16:00:00 38.4 9 Sudoeste 26 Oeste 0 952.9 -0.6 16
2020-07-07 15:00:00 37.8 8 Oeste 27 Noroeste 0 953.2 -0.2 17
2020-07-07 14:00:00 37.2 8 Sudoeste 28 Oeste 0 953.4 0.4 18
2020-07-07 13:00:00 36.3 7 Sur 14 Sudoeste 0 953.5 0.7 18
2020-07-07 12:00:00 35.2 4 Sur 12 Sudoeste 0 953.4 0.8 18
2020-07-07 11:00:00 34.2 0 Calma 6 Nordeste 0 953 0.7 22
2020-07-07 10:00:00 30.4 4 Este 9 Este 0 952.8 0.6 27
2020-07-07 09:00:00 24.9 5 Este 8 Este 0 952.6 0.4 42
2020-07-07 08:00:00 20.6 5 Sudeste 8 Sudeste 0 952.3 0 47
2020-07-07 07:00:00 19.5 5 Este 10 Este 0 952.2 -- 52
2020-07-07 06:00:00 20 5 Este 8 Este 0 952.2 -- 52
2020-07-07 05:00:00 21.1 4 Este 9 Este 0 952.3 -- 50
2020-07-07 04:00:00 24.2 2 Sudeste 13 Noroeste 0 952.4 -- 42
2020-07-07 03:00:00 25.9 6 Norte 15 Noroeste 0 952.7 -- 36
2020-07-07 02:00:00 24.6 5 Noroeste 10 Norte 0 952.8 -- 35
2020-07-07 01:00:00 22.7 4 Este 7 Este 0 952.9 -- 44
2020-07-07 00:00:00 24.9 2 Noroeste 9 Oeste 0 953.1 -- 39
2020-07-06 23:00:00 27 0 Calma 16 Oeste 0 953.1 -- 36
2020-07-06 22:00:00 31.6 4 Oeste 17 Sudoeste 0 952.6 -- 27
2020-07-06 21:00:00 34.3 4 Oeste 21 Sur 0 952.5 -- 23
2020-07-06 20:00:00 36.4 6 Sudoeste 23 Sudoeste 0 952.2 -- 19
2020-07-06 19:00:00 37.4 5 Sur 23 Sudoeste 0 952.4 -- 18
2020-07-06 18:00:00 37.6 9 Sudoeste 23 Oeste 0 952.6 -- 18
2020-07-06 17:00:00 38.4 2 Sudoeste 22 Sur 0 952.9 -- 18
2020-07-06 16:00:00 38.1 7 Sudoeste 16 Sudoeste 0 953.4 -- 17
2020-07-06 15:00:00 38 4 Sur 17 Noroeste 0 953.8 -- 19
2020-07-06 14:00:00 36.9 7 Oeste 16 Oeste 0 954.1 -- 18
2020-07-06 13:00:00 36 4 Oeste 15 Noroeste 0 954.3 -- 23
2020-07-06 12:00:00 33.8 5 Oeste 13 Oeste 0 954.6 -- 26
2020-07-06 11:00:00 31.2 6 Oeste 13 Noroeste 0 954.7 -- 33
2020-07-06 10:00:00 28.9 0 Calma 4 Noroeste 0 954.4 -- 34
2020-07-06 09:00:00 24 0 Calma 7 Este 0 954.4 -- 53
2020-07-06 08:00:00 18.7 4 Sudeste 6 Sudeste 0 953.9 -- 65
2020-07-06 07:00:00 17 2 Sudeste 6 Este 0 953.8 -- 68
2020-07-06 06:00:00 18.2 5 Este 7 Este 0 953.6 -- 64
2020-07-06 05:00:00 19.2 5 Este 8 Este 0 953.6 -- 60
2020-07-06 04:00:00 19.8 4 Este 9 Este 0 953.9 -- 59
2020-07-06 03:00:00 20.8 3 Sudeste 8 Este 0 954.3 -- 55
2020-07-06 02:00:00 20.7 5 Este 8 Este 0 954.4 -- 56
2020-07-06 01:00:00 21.2 3 Sudeste 5 Sudeste 0 954.7 -- 54
2020-07-06 00:00:00 22.4 0 Calma 5 Oeste 0 954.6 -- 48
2020-07-05 23:00:00 24.2 2 Sudeste 15 Sudoeste 0 954.5 -- 40
2020-07-05 22:00:00 27.8 3 Este 5 Este 0 954.2 -- 36
2020-07-05 21:00:00 33.7 2 Sudeste 13 Sur 0 954.3 -- 24
2020-07-05 20:00:00 36 3 Sudeste 13 Este 0 954.3 -- 20
2020-07-05 19:00:00 36.2 6 Este 15 Este 0 954.4 -- 19
2020-07-05 18:00:00 36.2 4 Sur 15 Sur 0 954.6 -- 20
2020-07-05 17:00:00 36.3 6 Sudoeste 21 Sur 0 954.8 -- 21
2020-07-05 16:00:00 35.7 5 Sur 19 Sudoeste 0 955.4 -- 22
2020-07-05 15:00:00 34.5 4 Sudeste 21 Sur 0 955.7 -- 24
2020-07-05 14:00:00 33.7 7 Este 30 Sur 0 956.1 -- 25
2020-07-05 13:00:00 32.5 8 Sudeste 21 Sur 0 956.6 -- 25
2020-07-05 12:00:00 30.9 7 Sur 17 Sur 0 956.6 -- 29
2020-07-05 11:00:00 29.6 5 Sudeste 19 Sur 0 956.7 -- 31
2020-07-05 10:00:00 27.5 6 Sudeste 20 Sur 0 956.5 -- 35
2020-07-05 09:00:00 24.3 4 Este 8 Este 0 956 -- 50
2020-07-05 08:00:00 17.7 2 Sudeste 6 Sudeste 0 955.6 -- 71
2020-07-05 07:00:00 16.3 2 Sudeste 5 Sudeste 0 955.3 -- 74
2020-07-05 06:00:00 16.8 3 Sudeste 7 Este 0 955.1 -- 73
2020-07-05 05:00:00 16.4 0 Calma 4 Sudeste 0 955.3 -- 75
2020-07-05 04:00:00 17 0 Calma 4 Oeste 0 955.5 -- 64
2020-07-05 03:00:00 18.2 0 Calma 4 Este 0 955.4 -- 55
2020-07-05 02:00:00 19.7 0 Calma 8 Este 0 956.1 -- 49
2020-07-05 01:00:00 20.4 5 Este 7 Oeste 0 956.1 -- 47
2020-07-05 00:00:00 21.1 4 Sudeste 6 Sudeste 0 956.1 -- 43
2020-07-04 23:00:00 22.8 0 Calma 5 Este 0 955.7 -- 40
2020-07-04 22:00:00 26.7 4 Este 8 Sur 0 955.1 -- 32
2020-07-04 21:00:00 33.1 4 Sur 12 Sudeste 0 955 -- 20
2020-07-04 20:00:00 34.4 4 Sur 12 Sur 0 955 -- 17
2020-07-04 19:00:00 35 3 Este 17 Sudeste 0 955.2 -- 17
2020-07-04 18:00:00 35.9 4 Sudeste 13 Este 0 955.8 -- 17
2020-07-04 17:00:00 35.8 3 Sudeste 16 Sudeste 0 956 -- 18
2020-07-04 16:00:00 34.5 3 Sur 19 Sur 0 956.2 -- 19
2020-07-04 15:00:00 34.3 5 Sudeste 16 Sudeste 0 956.9 -- 18
2020-07-04 14:00:00 33.3 5 Sudeste 15 Este 0 957.4 -- 18
2020-07-04 13:00:00 32.4 3 Sudeste 13 Sur 0 957.7 -- 18
2020-07-04 12:00:00 30.6 0 Calma 13 Sur 0 957.7 -- 24
2020-07-04 11:00:00 29.1 0 Calma 12 Oeste 0 957.3 -- 26
2020-07-04 10:00:00 26.7 2 Noroeste 7 Norte 0 957.1 -- 33
2020-07-04 09:00:00 22 3 Este 5 Sudeste 0 956.9 -- 45
2020-07-04 08:00:00 15.5 3 Sudeste 5 Este 0 956.5 -- 60
2020-07-04 07:00:00 13.3 3 Sudeste 6 Este 0 956.3 -- 66
2020-07-04 06:00:00 14.4 4 Sudeste 6 Este 0 956 -- 60
2020-07-04 05:00:00 14.5 4 Este 7 Este 0 955.9 -- 58
2020-07-04 04:00:00 15.6 4 Este 9 Este 0 956 -- 59
2020-07-04 03:00:00 15.6 3 Sudeste 7 Este 0 956.2 -- 60
2020-07-04 02:00:00 16.6 4 Sudeste 5 Este 0 956.2 -- 57
2020-07-04 01:00:00 17.4 4 Este 8 Este 0 956 -- 54
2020-07-04 00:00:00 19.4 4 Este 7 Este 0 956.1 -- 49
2020-07-03 23:00:00 21.3 3 Sudeste 7 Oeste 0 955.5 -- 43
2020-07-03 22:00:00 26.3 3 Oeste 16 Sur 0 954.9 -- 28
2020-07-03 21:00:00 30.4 6 Sudoeste 16 Sudoeste 0 954.8 -- 19
2020-07-03 20:00:00 31.8 7 Sudoeste 16 Sudoeste 0 954.7 -- 15
2020-07-03 19:00:00 33.3 3 Oeste 16 Oeste 0 954.6 -- 13
2020-07-03 18:00:00 32.9 8 Oeste 17 Norte 0 954.7 -- --
2020-07-03 17:00:00 33 6 Oeste 20 Oeste 0 955 -- 12
2020-07-03 16:00:00 32.6 6 Noroeste 24 Oeste 0 955.2 -- 13
2020-07-03 15:00:00 31.6 5 Nordeste 19 Noroeste 0 955.4 -- 16
2020-07-03 14:00:00 30.9 3 Sur 17 Sudoeste 0 955.5 -- 17
2020-07-03 13:00:00 29.6 2 Oeste 15 Oeste 0 955.9 -- 19
2020-07-03 12:00:00 27.9 3 Sur 13 Este 0 955.8 -- 23
2020-07-03 11:00:00 25 4 Este 12 Este 0 955.5 -- 31
2020-07-03 10:00:00 21.7 7 Este 14 Nordeste 0 955.3 -- 41
2020-07-03 09:00:00 17.5 8 Este 15 Este 0 955.2 -- 51
2020-07-03 08:00:00 14.8 5 Este 10 Este 0 955.1 -- 60
2020-07-03 07:00:00 12.8 3 Este 8 Sudeste 0 954.8 -- 68
2020-07-03 06:00:00 13.9 3 Sudeste 7 Este 0 954.5 -- 63
2020-07-03 05:00:00 16 3 Este 11 Este 0 954.3 -- 56
2020-07-03 04:00:00 17.9 5 Este 14 Nordeste 0 954.7 -- 47
2020-07-03 03:00:00 19 8 Noroeste 22 Noroeste 0 954.8 -- 44
2020-07-03 02:00:00 20 6 Noroeste 17 Noroeste 0 955 -- 44
2020-07-03 01:00:00 21.2 4 Norte 21 Noroeste 0 955.1 -- 42
2020-07-03 00:00:00 22.1 5 Noroeste 16 Noroeste 0 954.7 -- 40
2020-07-02 23:00:00 24.2 5 Noroeste 25 Noroeste 0 954.1 -- 35
2020-07-02 22:00:00 26.3 10 Noroeste 25 Noroeste 0 953.6 -- 34
2020-07-02 21:00:00 29.8 13 Noroeste 26 Oeste 0 953.4 -- 27
2020-07-02 20:00:00 31.8 14 Noroeste 23 Noroeste 0 953.1 -- 20
2020-07-02 19:00:00 32.4 9 Oeste 26 Oeste 0 953 -- 18
2020-07-02 18:00:00 33.8 11 Noroeste 27 Oeste 0 953.3 -- 19
2020-07-02 17:00:00 33.1 12 Oeste 35 Noroeste 0 953.2 -- 18
2020-07-02 16:00:00 33.4 12 Noroeste 31 Oeste 0 953.6 -- 21
2020-07-02 15:00:00 32.9 8 Oeste 22 Oeste 0 954 -- 21
2020-07-02 14:00:00 31.5 14 Oeste 29 Oeste 0 954.5 -- 24
2020-07-02 13:00:00 30.5 4 Oeste 21 Noroeste 0 954.6 -- 28
2020-07-02 12:00:00 29.1 6 Oeste 19 Oeste 0 954.6 -- 27
2020-07-02 11:00:00 27.8 3 Noroeste 13 Oeste 0 954.2 -- 34
2020-07-02 10:00:00 25.2 3 Oeste 10 Oeste 0 953.8 -- 40
2020-07-02 09:00:00 22.7 0 Calma 7 Este 0 953.5 -- 48
2020-07-02 08:00:00 17 3 Este 6 Este 0 953.2 -- 73
2020-07-02 07:00:00 15.9 4 Este 8 Este 0 952.7 -- 73
2020-07-02 06:00:00 16.5 4 Este 7 Este 0 952.5 -- 69
2020-07-02 05:00:00 18.4 3 Sudeste 6 Oeste 0 952.3 -- 62
2020-07-02 04:00:00 21 3 Oeste 13 Noroeste 0 952.4 -- 51
2020-07-02 03:00:00 20.7 3 Oeste 9 Noroeste 0 952.4 -- 55
2020-07-02 02:00:00 19.2 0 Calma 6 Sudeste 0 952.3 -- 69
2020-07-02 01:00:00 19.9 0 Calma 5 Este 0 952.4 -- 73
2020-07-02 00:00:00 21.9 3 Este 4 Este 0 952.4 -- 65
2020-07-01 23:00:00 24.7 2 Oeste 10 Sur 0 952.2 -- 54
2020-07-01 22:00:00 27.1 4 Sur 23 Sudoeste 0 951.6 -- 46
2020-07-01 21:00:00 29.6 7 Sudoeste 23 Sur 0 951.5 -- 39
2020-07-01 20:00:00 31.1 9 Sudoeste 25 Sudoeste 0 951.3 -- 35
2020-07-01 19:00:00 32.4 8 Sudoeste 23 Sudoeste 0 951.3 -- 32
2020-07-01 18:00:00 32.7 7 Sudoeste 24 Sudoeste 0 951.6 -- 29
2020-07-01 17:00:00 33 6 Sudoeste 25 Oeste 0 952.1 -- 30
2020-07-01 16:00:00 31.9 10 Oeste 25 Oeste 0 952 -- 31
2020-07-01 15:00:00 31.6 9 Oeste 23 Oeste 0 952.2 -- 31
2020-07-01 14:00:00 30.2 6 Sudoeste 19 Sudoeste 0 952.7 -- 34
2020-07-01 13:00:00 28.4 6 Sudoeste 21 Sudoeste 0 952.8 -- 38
2020-07-01 12:00:00 26.3 5 Sudoeste 18 Sudoeste 0 952.9 -- 50
2020-07-01 11:00:00 24.4 5 Sudoeste 15 Sudoeste 0 952.6 -- 60
2020-07-01 10:00:00 20.8 5 Noroeste 9 Noroeste 0 952.3 -- 80
2020-07-01 09:00:00 17.6 0 Calma -- -- 0 952.2 -- 97
2020-07-01 08:00:00 15.3 0 Calma 2 Sudeste 0 951.7 -- 97
2020-07-01 07:00:00 14.6 0 Calma 4 Sudeste 0 951.3 -- 96
2020-07-01 06:00:00 14.4 0 Calma -- -- 0 951.1 -- 88
2020-07-01 05:00:00 15.2 0 Calma 5 Este 0 950.8 -- 85
2020-07-01 04:00:00 16 4 Este 6 Este 0 950.7 -- 85
2020-07-01 03:00:00 16.5 0 Calma 3 Sudoeste 0 951.1 -- 80
2020-07-01 02:00:00 17.8 0 Calma 4 Oeste 0 951.3 -- 75
2020-07-01 01:00:00 19.4 0 Calma 6 Sudoeste 0 951.2 -- 68
2020-07-01 00:00:00 21.4 4 Oeste 9 Sudoeste 0 950.7 -- 60
2020-06-30 23:00:00 24.5 4 Sudoeste 17 Sur 0 950.4 -- 49
2020-06-30 22:00:00 26.5 5 Sudoeste 22 Sudoeste 0 950.1 -- 46
2020-06-30 21:00:00 29.9 8 Sudoeste 41 Sudoeste 0 949.7 -- 36
2020-06-30 20:00:00 31.9 9 Sudoeste 27 Sudoeste 0 949.3 -- 31
2020-06-30 19:00:00 33 8 Sudoeste 24 Sudoeste 0 949.4 -- 28
2020-06-30 18:00:00 34.2 10 Oeste 28 Sur 0 949.6 -- 25
2020-06-30 17:00:00 33.6 8 Sudoeste 27 Sur 0 949.8 -- 25
2020-06-30 16:00:00 33.5 9 Sudoeste 24 Oeste 0 950.2 -- 26
2020-06-30 15:00:00 33.4 7 Sudoeste 24 Oeste 0 950.5 -- 27
2020-06-30 14:00:00 32.7 6 Sur 23 Sudoeste 0 950.8 -- 30
2020-06-30 13:00:00 30.8 10 Sudoeste 20 Sudoeste 0 950.9 -- 34
2020-06-30 12:00:00 30.8 4 Sur 17 Sur 0 950.9 -- 36
2020-06-30 11:00:00 29.6 4 Sudeste 12 Sur 0 950.6 -- 37
2020-06-30 10:00:00 28.4 0 Calma 7 Este 0 950.1 -- 37
2020-06-30 09:00:00 24.8 4 Este 8 Este 0 950 -- 48
2020-06-30 08:00:00 19.9 4 Este 7 Este 0 949.6 -- 64
2020-06-30 07:00:00 17.5 5 Este 8 Este 0 949.5 -- 71
2020-06-30 06:00:00 18 4 Sudeste 7 Sudeste 0 949.7 -- 69
2020-06-30 05:00:00 18.4 4 Este 7 Este 0 950 -- 69
2020-06-30 04:00:00 19.2 0 Calma 7 Este 0 950.4 -- 65
2020-06-30 03:00:00 19.5 3 Este 7 Nordeste 0 950.7 -- 65
2020-06-30 02:00:00 20.3 3 Este 6 Sudeste 0 950.2 -- 62
2020-06-30 01:00:00 20.7 3 Sudeste 6 Este 0 950.6 -- 59
2020-06-30 00:00:00 22.4 4 Este 6 Este 0 950.8 -- 52
2020-06-29 23:00:00 25 0 Calma 6 Sudoeste 0 950.5 -- 45
2020-06-29 22:00:00 30.2 5 Sur 12 Sur 0 950.3 -- 31
2020-06-29 21:00:00 33.7 5 Sudoeste 15 Sudoeste 0 950.6 -- 23
2020-06-29 20:00:00 36.2 4 Sudoeste 16 Oeste 0 950.4 -- 17
2020-06-29 19:00:00 36.2 4 Sudoeste 17 Sudoeste 0 950.8 -- 19
2020-06-29 18:00:00 36.2 3 Oeste 19 Sudoeste 0 950.6 -- 22
2020-06-29 17:00:00 36 6 Oeste 17 Sur 0 951.6 -- 23
2020-06-29 16:00:00 35.5 8 Sudoeste 22 Oeste 0 952.2 -- 23
2020-06-29 15:00:00 35.9 3 Sudeste 18 Sur 0 952.6 -- 25
2020-06-29 14:00:00 34.2 4 Sudeste 20 Sur 0 953.2 -- 30
2020-06-29 13:00:00 33.5 4 Sur 16 Sur 0 953.5 -- 33
2020-06-29 12:00:00 32.2 4 Sur 12 Sur 0 953.7 -- 35
2020-06-29 11:00:00 31 3 Este 11 Este 0 953.5 -- 36
2020-06-29 10:00:00 28 4 Nordeste 10 Nordeste 0 953.5 -- 45
2020-06-29 09:00:00 24.5 4 Este 11 Este 0 953.3 -- 58
2020-06-29 08:00:00 19.1 3 Este 7 Este 0 953.1 -- 76
2020-06-29 07:00:00 17.1 4 Este 6 Este 0 953.1 -- 81
2020-06-29 06:00:00 18 4 Este 6 Este 0 953 -- 77
2020-06-29 05:00:00 19.3 3 Este 5 Este 0 952.9 -- 72
2020-06-29 04:00:00 20.7 0 Calma 8 Oeste 0 953.1 -- 63
2020-06-29 03:00:00 22.8 0 Calma 16 Norte 0 953.4 -- 52
2020-06-29 02:00:00 24.7 6 Noroeste 13 Norte 0 953.6 -- 40
2020-06-29 01:00:00 24.2 5 Este 13 Nordeste 0 953.5 -- 39
2020-06-29 00:00:00 22.4 4 Este 9 Este 0 953.5 -- 52
2020-06-28 23:00:00 24.9 0 Calma 8 Sudoeste 0 953.1 -- 46
2020-06-28 22:00:00 29 2 Sudoeste 13 Sudoeste 0 953 -- 35
2020-06-28 21:00:00 32.8 4 Sur 12 Sudoeste 0 952.9 -- 29
2020-06-28 20:00:00 34.1 2 Sudeste 16 Sudoeste 0 952.8 -- 27
2020-06-28 19:00:00 34.6 3 Oeste 19 Oeste 0 952.9 -- 26
2020-06-28 18:00:00 34 7 Oeste 18 Oeste 0 953.2 -- 27
2020-06-28 17:00:00 34.7 4 Sur 17 Sur 0 953.5 -- 26
2020-06-28 16:00:00 34.8 8 Noroeste 18 Noroeste 0 954.1 -0.9 27
2020-06-28 15:00:00 33.2 2 Sudoeste 24 Noroeste 0 954.3 -- 27
2020-06-28 14:00:00 32.8 3 Sudeste 14 Este 0 954.8 -- 29
2020-06-28 13:00:00 31.6 5 Sudoeste 13 Nordeste 0 955 -- 33
2020-06-28 12:00:00 30.8 2 Sudoeste 17 Sur 0 955 -- 35
2020-06-28 11:00:00 28.6 3 Nordeste 14 Nordeste 0 955 -- 42
2020-06-28 10:00:00 25.7 6 Este 15 Este 0 954.9 -- 50
2020-06-28 09:00:00 22.8 5 Este 12 Este 0 954.7 -- 59
2020-06-28 08:00:00 18.1 4 Este 5 Este 0 954.4 -- 77
2020-06-28 07:00:00 16 3 Este 5 Este 0 954.1 -- 83
2020-06-28 06:00:00 16.6 3 Este 6 Este 0 954 -- 80
2020-06-28 05:00:00 17.4 3 Este 5 Este 0 954.2 -- 76
2020-06-28 04:00:00 19.3 0 Calma 9 Oeste 0 954.4 -- 68
2020-06-28 03:00:00 20.8 5 Oeste 14 Noroeste 0 954.2 -- 62
2020-06-28 02:00:00 21.1 5 Noroeste 14 Noroeste 0 954.3 -- 60
2020-06-28 01:00:00 20 3 Noroeste 9 Noroeste 0 954.4 -- 60
2020-06-28 00:00:00 21.4 2 Oeste 6 Nordeste 0 954.4 -- 54
2020-06-27 23:00:00 22.2 0 Calma 4 Nordeste 0 954 -- 61
2020-06-27 22:00:00 26.1 0 Calma 14 Sudoeste 0 953.3 -- 48
2020-06-27 21:00:00 29 5 Sudoeste 17 Sur 0 953.2 -- 38
2020-06-27 20:00:00 30.4 9 Sudoeste 20 Sur 0 953.1 -- 33
2020-06-27 19:00:00 31.2 6 Sudoeste 23 Sudoeste 0 953.1 -- 30
2020-06-27 18:00:00 32.4 4 Sudoeste 25 Noroeste 0 953.7 -- 29
2020-06-27 17:00:00 32 3 Noroeste 19 Oeste 0 953.9 -- 28
2020-06-27 16:00:00 31.5 4 Oeste 24 Nordeste 0 954.1 -- 28
2020-06-27 15:00:00 30.5 8 Noroeste 19 Oeste 0 954.5 -- 30
2020-06-27 14:00:00 29.2 4 Norte 17 Oeste 0 954.6 -- 33
2020-06-27 13:00:00 27.7 7 Oeste 15 Oeste 0 954.9 -- 34
2020-06-27 12:00:00 26.6 3 Norte 14 Noroeste 0 955 -- 38
2020-06-27 11:00:00 25.2 5 Este 14 Noroeste 0 955 -- 44
2020-06-27 10:00:00 22.7 8 Norte 14 Norte 0 955 -- 51
2020-06-27 09:00:00 19.9 2 Norte 9 Norte 0 954.5 -- 61
2020-06-27 08:00:00 15.8 3 Este 9 Nordeste 0 954.3 -- 70
2020-06-27 07:00:00 14.6 4 Nordeste 8 Nordeste 0 954.2 -- 72
2020-06-27 06:00:00 14.6 3 Este 7 Norte 0 953.6 -- 71
2020-06-27 05:00:00 16.7 3 Norte 9 Noroeste 0 953.2 -- 61
2020-06-27 04:00:00 17.6 3 Noroeste 9 Noroeste 0 953.4 -- 57
2020-06-27 03:00:00 18.6 0 Calma 17 Noroeste 0 953.6 -- 55
2020-06-27 02:00:00 18.9 4 Noroeste 14 Noroeste 0 953.7 -- 51
2020-06-27 01:00:00 19.8 5 Noroeste 12 Noroeste 0 953.7 -- 42
2020-06-27 00:00:00 19.4 4 Noroeste 13 Noroeste 0 953.5 -- 43
2020-06-26 23:00:00 20.5 0 Calma 9 Este 0 953.2 -- 56
2020-06-26 22:00:00 23.7 0 Calma 13 Sur 0 952.5 -- 43
2020-06-26 21:00:00 26.5 8 Sur 22 Sur 0 952 -- 35
2020-06-26 20:00:00 28.7 8 Sudoeste 21 Sudoeste 0 951.8 -- 24
2020-06-26 19:00:00 29 8 Sudoeste 26 Oeste 0 951.8 -- 26
2020-06-26 18:00:00 29 6 Oeste 31 Noroeste 0 952.2 -- 29
2020-06-26 17:00:00 28.6 4 Sudoeste 23 Oeste 0 952.6 -- 35
2020-06-26 16:00:00 28.1 9 Sudoeste 26 Oeste 0 953.1 -- 37
2020-06-26 15:00:00 27.7 8 Oeste 22 Noroeste 0 953 -- 40
2020-06-26 14:00:00 26.1 8 Oeste 19 Sur 0 953.3 -- 44
2020-06-26 13:00:00 24.2 5 Sudoeste 21 Oeste 0 953.6 -- 59
2020-06-26 12:00:00 22 5 Sudoeste 14 Sudoeste 0 953.7 -- 66
2020-06-26 11:00:00 20 5 Sudoeste 17 Oeste 0 953.4 -- 77
2020-06-26 10:00:00 17.8 3 Oeste 10 Oeste 0 953.1 -- 87
2020-06-26 09:00:00 16.3 4 Sudoeste 10 Oeste 0 952.8 -- 96
2020-06-26 08:00:00 16 0 Calma 9 Sur 0 952.5 -- 97
2020-06-26 07:00:00 15.8 0 Calma 7 Sudoeste 0 952.6 -- 97
2020-06-26 06:00:00 15.9 3 Sudoeste 5 Sur 0 952.6 -- 97
2020-06-26 05:00:00 15.7 3 Oeste 8 Oeste 0 952.5 -- 96
2020-06-26 04:00:00 15.9 2 Noroeste 6 Noroeste 0 952.6 -- 90
2020-06-26 03:00:00 17.7 0 Calma 8 Sur 0 952.6 -- 82
2020-06-26 02:00:00 17.8 0 Calma 12 Sudoeste 0 952.7 -- 81
2020-06-26 01:00:00 19.4 5 Sur 16 Sudoeste 0 953 -- 77
2020-06-26 00:00:00 20.2 0 Calma 8 Sudoeste 0 952.6 -- 71
2020-06-25 23:00:00 22.4 4 Sur 14 Sur 0 952.4 -- 63
2020-06-25 22:00:00 24.2 2 Sur 18 Oeste 0 951.9 -- 56
2020-06-25 21:00:00 26.8 6 Sudoeste 23 Oeste 0 951.5 -- 47
2020-06-25 20:00:00 28.3 8 Oeste 26 Oeste 0 951.2 -- 42
2020-06-25 19:00:00 28.9 9 Oeste 28 Sudoeste 0 951.3 -- 40
2020-06-25 18:00:00 29 8 Sudoeste 26 Sudoeste 0 951.8 -- 41
2020-06-25 17:00:00 29 10 Sudoeste 26 Oeste 0 952.1 -- 41
2020-06-25 16:00:00 29 8 Sudoeste 26 Sudoeste 0 952.3 -- 38
2020-06-25 15:00:00 29.5 8 Sudoeste 19 Sudoeste 0 952.5 -- 33
2020-06-25 14:00:00 28.8 9 Sudoeste 22 Sudoeste 0 952.8 -- 32
2020-06-25 13:00:00 28.2 7 Oeste 18 Oeste 0 953 -- 34
2020-06-25 12:00:00 26 8 Oeste 20 Oeste 0 953.1 -- 42
2020-06-25 11:00:00 24.6 9 Oeste 16 Noroeste 0 952.8 -- 44
2020-06-25 10:00:00 22.8 7 Oeste 12 Oeste 0 952.5 -- 49
2020-06-25 09:00:00 20.8 4 Oeste 9 Oeste 0 951.7 -- 58
2020-06-25 08:00:00 15.9 0 Calma 4 Sudeste 0 951.8 -- 79
2020-06-25 07:00:00 14.7 2 Sudeste 4 Este 0 951.8 -- 82
2020-06-25 06:00:00 15.6 0 Calma 4 Sudoeste 0 951.8 -- 79
2020-06-25 05:00:00 16.7 0 Calma 6 Este 0 951.9 -- 76
2020-06-25 04:00:00 18.1 3 Este 7 Este 0 952.2 -- 75
2020-06-25 03:00:00 19 0 Calma 6 Noroeste 0 952.4 -- 72
2020-06-25 02:00:00 19.4 0 Calma 8 Oeste 0 952.5 -- 71
2020-06-25 01:00:00 20.6 6 Oeste 12 Oeste 0 952.7 -- 65
2020-06-25 00:00:00 23.3 0 Calma 10 Sur 0 952.4 -- 55
2020-06-24 23:00:00 24.9 2 Oeste 10 Oeste 0 951.8 -- 50
2020-06-24 22:00:00 27.7 0 Calma 8 Sudoeste 0 951.5 -- 43
2020-06-24 21:00:00 31.1 3 Sudoeste 14 Oeste 0 951.1 -- 31
2020-06-24 20:00:00 32.3 10 Oeste 22 Noroeste 0 950.9 -- 27
2020-06-24 19:00:00 33.5 7 Oeste 18 Sudoeste 0 951.1 -- 25
2020-06-24 18:00:00 34.4 4 Sudoeste 21 Sudoeste 0 951.5 -- 24
2020-06-24 17:00:00 34 5 Sudoeste 24 Sur 0 951.9 -- 25
2020-06-24 16:00:00 34.1 2 Sur 22 Sudoeste 0 952.1 -- 23
2020-06-24 15:00:00 33.3 8 Sudoeste 25 Sudoeste 0 952.5 -- 23
2020-06-24 14:00:00 33 7 Sudoeste 20 Sudoeste 0 952.6 -- 24
2020-06-24 13:00:00 32.9 6 Sudoeste 14 Sudoeste 0 952.4 -- 26
2020-06-24 12:00:00 31.7 0 Calma 10 Sudeste 0 952.4 -- 31
2020-06-24 11:00:00 29.6 4 Oeste 12 Este 0 952.2 -- 35
2020-06-24 10:00:00 26.8 5 Este 9 Este 0 952.2 -- 42
2020-06-24 09:00:00 23.4 3 Este 7 Este 0 952.3 -- 49
2020-06-24 08:00:00 18.5 5 Este 8 Este 0 952 -- 68
2020-06-24 07:00:00 16.7 2 Sudeste 6 Norte 0 951.6 -- 72
2020-06-24 06:00:00 17.8 2 Este 6 Este 0 951.9 -- 67
2020-06-24 05:00:00 18.9 3 Sudeste 6 Este 0 952 -- 63
2020-06-24 04:00:00 21.2 2 Sur 9 Sudoeste 0 951.4 -- 51
2020-06-24 03:00:00 21.2 6 Oeste 13 Oeste 0 951.9 -- 51
2020-06-24 02:00:00 22.7 4 Oeste 15 Sudoeste 0 952.7 -- 49
2020-06-24 01:00:00 23.8 9 Oeste 23 Noroeste 0 952.2 -- 47
2020-06-24 00:00:00 24.9 5 Sudoeste 17 Sudoeste 0 951.9 -- 44
2020-06-23 23:00:00 23.5 4 Sur 10 Sur 0 951.3 -- 50
2020-06-23 22:00:00 25.4 0 Calma 4 Este 0 950.5 -- 46
2020-06-23 21:00:00 29.8 0 Calma 6 Sudeste 0 950.3 -- 37
2020-06-23 20:00:00 32.3 0 Calma 17 Sur 0 950.3 -- 26
2020-06-23 19:00:00 35.2 7 Sur 19 Sur 0 950.6 -- 18
2020-06-23 18:00:00 34.1 7 Sur 19 Sur 0 950.7 -- 19
2020-06-23 17:00:00 36.2 5 Sudeste 26 Sudoeste 0 951 -- 19
2020-06-23 16:00:00 36.1 4 Sur 21 Sudeste 0 951.6 -- 20
2020-06-23 15:00:00 34.8 5 Sudeste 26 Sur 0 952.1 -- 20
2020-06-23 14:00:00 34.1 6 Sudeste 27 Sur 0 952.3 -- 20
2020-06-23 13:00:00 32.6 10 Sudeste 30 Sur 0 952.6 -- 23
2020-06-23 12:00:00 32.2 5 Sudeste 24 Sur 0 952.7 -- 24
2020-06-23 11:00:00 30.6 5 Sudeste 13 Sudeste 0 952.6 -- 27
2020-06-23 10:00:00 28.1 5 Sudeste 19 Este 0 952.4 -- 31
2020-06-23 09:00:00 24.8 5 Este 12 Este 0 952.3 -- 36
2020-06-23 08:00:00 18 2 Sudeste 7 Este 0 952.2 -- 59
2020-06-23 07:00:00 15.9 4 Sudeste 5 Sudeste 0 952.1 -- 61
2020-06-23 06:00:00 16.6 3 Sudeste 6 Sur 0 952.1 -- 54
2020-06-23 05:00:00 17.6 3 Sudeste 7 Este 0 952 -- 51
2020-06-23 04:00:00 17.3 2 Sudeste 5 Sudeste 0 952.2 -- 55
2020-06-23 03:00:00 19.2 0 Calma 6 Este 0 952.7 -- 46
2020-06-23 02:00:00 20.8 0 Calma 8 Este 0 953 -- 39
2020-06-23 01:00:00 22.3 5 Este 10 Este 0 953.1 -- 36
2020-06-23 00:00:00 25.7 4 Sudeste 9 Sur 0 953.5 -- 27
2020-06-22 23:00:00 26.9 4 Sudeste 9 Este 0 953.3 -- 26
2020-06-22 22:00:00 28.3 6 Este 9 Este 0 952.8 -- 25
2020-06-22 21:00:00 32.5 3 Sudeste 14 Este 0 952.8 -- 21
2020-06-22 20:00:00 34.6 5 Sudeste 14 Sudoeste 0 952.8 -- 18
2020-06-22 19:00:00 36.3 4 Sudeste 15 Sur 0 953 -- 18
2020-06-22 18:00:00 36.3 4 Sur 21 Sur 0 953.5 -- 17
2020-06-22 17:00:00 36.3 5 Sudoeste 24 Sudoeste 0 954 -- 16
2020-06-22 16:00:00 36.3 7 Sur 20 Sudoeste 0 954.7 -- 18
2020-06-22 15:00:00 35.8 5 Sudeste 28 Este 0 955.3 -- 18
2020-06-22 14:00:00 34.5 6 Sudeste 24 Sudeste 0 955.9 -- 19
2020-06-22 13:00:00 33.8 9 Este 18 Este 0 956.1 -- 21
2020-06-22 12:00:00 32.9 6 Sudeste 19 Este 0 956.2 -- 21
2020-06-22 11:00:00 31.5 5 Este 14 Este 0 956 -- 24
2020-06-22 10:00:00 28.7 5 Este 12 Este 0 956.1 -- 27
2020-06-22 09:00:00 24.5 4 Este 7 Este 0 956.1 -- 41
2020-06-22 08:00:00 18 4 Este 9 Este 0 956.1 -- 60
2020-06-22 07:00:00 15.5 5 Este 9 Nordeste 0 956 -- 62
2020-06-22 06:00:00 14.7 0 Calma 4 Sudeste 0 956.2 -- 65
2020-06-22 05:00:00 16.1 2 Sudeste 7 Este 0 956.3 -- 60
2020-06-22 04:00:00 16.3 4 Este 5 Este 0 956.8 -- 57
2020-06-22 03:00:00 18.3 3 Sudeste 10 Nordeste 0 957.1 -- 47
2020-06-22 02:00:00 21.9 3 Oeste 14 Nordeste 0 957.4 -- 37
2020-06-22 01:00:00 24.6 5 Nordeste 14 Nordeste 0 957.7 -- 29
2020-06-22 00:00:00 24 7 Nordeste 15 Nordeste 0 957.7 -- 28
2020-06-21 23:00:00 24.3 0 Calma 9 Noroeste 0 957.7 -- 33
2020-06-21 22:00:00 27.4 4 Noroeste 12 Noroeste 0 957.1 -- 23
2020-06-21 21:00:00 32 5 Noroeste 18 Norte 0 957.1 -- 17
2020-06-21 20:00:00 34.2 5 Noroeste 16 Oeste 0 957 -- 15
2020-06-21 19:00:00 34.5 10 Oeste 15 Oeste 0 957.2 -- 15
2020-06-21 18:00:00 34.7 4 Sudoeste 35 Oeste 0 957.6 -- 15
2020-06-21 17:00:00 34.9 4 Sur 22 Sudoeste 0 958 -- 15
2020-06-21 16:00:00 34.5 4 Noroeste 15 Este 0 958.6 -- 18
2020-06-21 15:00:00 33.8 4 Sur 33 Oeste 0 958.9 -- 19
2020-06-21 14:00:00 32.6 2 Este 20 Sudoeste 0 959.4 -- 19
2020-06-21 13:00:00 31.6 4 Sur 13 Sudoeste 0 959.6 -- 22
2020-06-21 12:00:00 30.4 0 Calma 13 Sudoeste 0 959.6 -- 25
2020-06-21 11:00:00 27.6 5 Norte 15 Nordeste 0 959.6 -- 29
2020-06-21 10:00:00 25 6 Este 12 Este 0 959.7 -- 37
2020-06-21 09:00:00 20.7 4 Este 7 Este 0 959.2 -- 50
2020-06-21 08:00:00 15.4 4 Este 8 Este 0 959.1 -- 65
2020-06-21 07:00:00 13.4 3 Sudeste 9 Este 0 958.8 -- 71
2020-06-21 06:00:00 14.2 3 Este 6 Este 0 958.6 -- 70
2020-06-21 05:00:00 16.1 4 Este 8 Este 0 958.6 -- 63
2020-06-21 04:00:00 18.1 3 Noroeste 10 Noroeste 0 958.7 -- 54
2020-06-21 03:00:00 19.5 4 Noroeste 14 Noroeste 0 959 -- 51
2020-06-21 02:00:00 21.1 4 Norte 14 Noroeste 0 959.1 -- 43
2020-06-21 01:00:00 21.9 5 Noroeste 13 Norte 0 958.9 -- 38
2020-06-21 00:00:00 21.5 4 Noroeste 12 Noroeste 0 958.8 -- 39
2020-06-20 23:00:00 21.8 3 Sudeste 12 Sudeste 0 958.4 -- 46
2020-06-20 22:00:00 26.7 3 Sur 13 Sudoeste 0 957.8 -- 31
2020-06-20 21:00:00 30.3 4 Sur 22 Oeste 0 957.5 -- 24
2020-06-20 20:00:00 31.9 6 Oeste 15 Noroeste 0 957.1 -- 20
2020-06-20 19:00:00 32.3 9 Oeste 18 Sudoeste 0 957.1 -- 21
2020-06-20 18:00:00 32.5 5 Sudoeste 14 Oeste 0 957.4 -- 22
2020-06-20 17:00:00 32.6 9 Oeste 19 Noroeste 0 957.7 -- 20
2020-06-20 16:00:00 31.8 5 Oeste 20 Noroeste 0 957.9 -- 21
2020-06-20 15:00:00 31.1 9 Oeste 21 Oeste 0 958.3 -- 25
2020-06-20 14:00:00 30.3 7 Sudoeste 22 Oeste 0 958.4 -- 26
2020-06-20 13:00:00 29.2 8 Sudoeste 22 Sudoeste 0 958.5 -- 27
2020-06-20 12:00:00 28.5 3 Sur 12 Sur 0 958.2 -- 30
2020-06-20 11:00:00 26.8 4 Este 12 Este 0 958.2 -- 33
2020-06-20 10:00:00 24.2 4 Sudeste 8 Este 0 958 -- 38
2020-06-20 09:00:00 20.3 4 Este 8 Este 0 957.8 -- 50
2020-06-20 08:00:00 14.1 4 Este 7 Este 0 957.4 -- 71
2020-06-20 07:00:00 12 5 Este 7 Este 0 957.3 -- 76
2020-06-20 06:00:00 12.4 5 Este 7 Este 0 956.9 -- 74
2020-06-20 05:00:00 12.8 4 Este 9 Este 0 956.9 -- 71
2020-06-20 04:00:00 13.6 5 Este 8 Este 0 956.9 -- 70
2020-06-20 03:00:00 13.9 4 Este 9 Este 0 956.9 -- 75
2020-06-20 02:00:00 14.1 4 Sudeste 7 Este 0 957.1 -- 74
2020-06-20 01:00:00 14.9 4 Este 6 Este 0 957.4 -- 71
2020-06-20 00:00:00 16.5 0 Calma 4 Oeste 0 957.3 -- 66
2020-06-19 23:00:00 20.2 0 Calma 11 Sur 0 956.8 -- 51
2020-06-19 22:00:00 23 4 Sur 15 Sudoeste 0 956.2 -- 43
2020-06-19 21:00:00 26.6 4 Sudoeste 19 Sudoeste 0 955.8 -- 32
2020-06-19 20:00:00 28 6 Sudoeste 21 Sudoeste 0 955.4 -- 28
2020-06-19 19:00:00 28.3 5 Oeste 17 Sur 0 955.2 -- 27
2020-06-19 18:00:00 28.8 4 Sudoeste 22 Sudoeste 0 955.4 -- 29
2020-06-19 17:00:00 28.6 4 Sudoeste 34 Oeste 0 955.4 -- 30
2020-06-19 16:00:00 27.6 7 Oeste 27 Oeste 0 955.6 -- 31
2020-06-19 15:00:00 26.9 6 Sur 22 Sudoeste 0 955.7 -- 33
2020-06-19 14:00:00 26.8 6 Oeste 20 Oeste 0 955.9 -- 35
2020-06-19 13:00:00 25.6 8 Oeste 21 Noroeste 0 955.8 -- 37
2020-06-19 12:00:00 24.3 3 Oeste 16 Sudoeste 0 955.6 -- 41
2020-06-19 11:00:00 22.3 4 Oeste 12 Oeste 0 955.3 -- 45
2020-06-19 10:00:00 20.2 4 Oeste 10 Sudoeste 0 955 -- 50
2020-06-19 09:00:00 17.4 2 Noroeste 6 Noroeste 0 954.8 -- 58
2020-06-19 08:00:00 13.3 3 Este 6 Este 0 954.3 -- 73
2020-06-19 07:00:00 11.8 3 Sudeste 6 Oeste 0 953.7 -- 81
2020-06-19 06:00:00 12.2 0 Calma 6 Sudoeste 0 953.3 -- 77
2020-06-19 05:00:00 12.9 3 Este 9 Nordeste 0 953.1 -- 76
2020-06-19 04:00:00 13.7 3 Este 12 Norte 0 953.1 -- 73
2020-06-19 03:00:00 14 2 Noroeste 8 Oeste 0 953 -- 71
2020-06-19 02:00:00 13 0 Calma 5 Este 0 953 -- 79
2020-06-19 01:00:00 14.3 0 Calma 4 Oeste 0 952.8 -- 73
2020-06-19 00:00:00 16.1 2 Noroeste 5 Noroeste 0 952.4 -- 65
2020-06-18 23:00:00 19.4 0 Calma 14 Sudoeste 0 952 -- 53
2020-06-18 22:00:00 21.7 5 Sur 20 Sudoeste 0 951 -- 44
2020-06-18 21:00:00 25.5 8 Sudoeste 23 Sur 0 950.8 -- 35
2020-06-18 20:00:00 27.6 5 Sur 21 Sudoeste 0 950.2 -- 24
2020-06-18 19:00:00 28.3 9 Sur 25 Sudoeste 0 949.9 -- 22
2020-06-18 18:00:00 29 4 Sudoeste 27 Sudoeste 0 949.9 -- 24
2020-06-18 17:00:00 29 6 Noroeste 21 Oeste 0 950.1 -- 26
2020-06-18 16:00:00 28.5 9 Oeste 23 Oeste 0 950.3 -- 26
2020-06-18 15:00:00 27.4 5 Noroeste 22 Sur 0 950.5 -- 31
2020-06-18 14:00:00 26.7 7 Oeste 19 Oeste 0 950.9 -- 29
2020-06-18 13:00:00 25.8 8 Oeste 23 Sudoeste 0 951.2 -- 31
2020-06-18 12:00:00 24.8 4 Sudoeste 16 Sudoeste 0 951.1 -- 37
2020-06-18 11:00:00 22.5 5 Oeste 14 Sudoeste 0 950.8 -- 44
2020-06-18 10:00:00 20.8 5 Nordeste 12 Sudeste 0 950.7 -- 50
2020-06-18 09:00:00 18 0 Calma 4 Este 0 950.9 -- 61
2020-06-18 08:00:00 13.2 4 Este 8 Este 0 950.7 -- 76
2020-06-18 07:00:00 10.2 3 Este 7 Este 0 950.5 -- 86
2020-06-18 06:00:00 10.7 3 Sudeste 7 Este 0 950.3 -- 84
2020-06-18 05:00:00 11.1 3 Este 6 Este 0 950.4 -- 81
2020-06-18 04:00:00 12.1 3 Este 7 Nordeste 0 950.6 -- 77
2020-06-18 03:00:00 13.1 0 Calma 8 Nordeste 0 951 -- 71
2020-06-18 02:00:00 14.9 5 Nordeste 10 Nordeste 0 951.2 -- 61
2020-06-18 01:00:00 15.9 4 Este 9 Este 0 951.8 -- 59
2020-06-18 00:00:00 16.1 2 Noroeste 10 Norte 0 952 -- 55
2020-06-17 23:00:00 16.2 0 Calma 7 Norte 0 951.7 -- 55
2020-06-17 22:00:00 20.5 0 Calma 17 Noroeste 0 951 -- 40
2020-06-17 21:00:00 24.8 8 Noroeste 21 Noroeste 0 950.9 -- 26
2020-06-17 20:00:00 25.9 13 Noroeste 24 Noroeste 0 951.1 -- 25
2020-06-17 19:00:00 26.9 10 Noroeste 22 Oeste 0 951.1 -- 25
2020-06-17 18:00:00 27.2 11 Noroeste 31 Oeste 0 951.5 -- 28
2020-06-17 17:00:00 27.5 13 Noroeste 32 Oeste 0 951.9 -- 30
2020-06-17 16:00:00 27.4 8 Noroeste 27 Noroeste 0 952.4 -- 29
2020-06-17 15:00:00 27 13 Noroeste 29 Oeste 0 952.7 -- 32
2020-06-17 14:00:00 25.2 8 Oeste 27 Noroeste 0 953.5 -- 33
2020-06-17 13:00:00 23.8 9 Oeste 23 Oeste 0 954.3 -- 36
2020-06-17 12:00:00 21.8 8 Oeste 20 Noroeste 0 954.3 -- 38
2020-06-17 11:00:00 20.2 9 Noroeste 21 Noroeste 0 954.4 -- 47
2020-06-17 10:00:00 18.1 6 Oeste 18 Norte 0 954.6 -- 55
2020-06-17 09:00:00 15.7 5 Noroeste 22 Norte 0 954.6 -- 64
2020-06-17 08:00:00 13.2 2 Norte 10 Norte 0 954.3 -- 76
2020-06-17 07:00:00 11.7 0 Calma 10 Noroeste 0 954.4 -- 84
2020-06-17 06:00:00 12.5 4 Noroeste 12 Oeste 0 954.5 -- 85
2020-06-17 05:00:00 13.3 0 Calma 8 Sudoeste 0 954.6 -- 79
2020-06-17 04:00:00 14.7 0 Calma 10 Nordeste 0 954.8 -- 76
2020-06-17 03:00:00 14.6 0 Calma 9 Noroeste 0 955.4 -- 77
2020-06-17 02:00:00 15.5 0 Calma 10 Oeste 0 955.7 -- 75
2020-06-17 01:00:00 16.4 4 Noroeste 10 Noroeste 0 956.1 -- 71
2020-06-17 00:00:00 16.1 3 Este 5 Este 0 956.3 -- 76
2020-06-16 23:00:00 18.6 2 Este 14 Oeste 0 955.9 -- 66
2020-06-16 22:00:00 20.9 10 Noroeste 23 Noroeste 0 955.7 -- 56
2020-06-16 21:00:00 22.3 5 Noroeste 24 Oeste 0 955.7 -- 51
2020-06-16 20:00:00 23.4 14 Oeste 23 Oeste 0 955.7 -- 45
2020-06-16 19:00:00 23.9 15 Noroeste 63 Oeste 0 956.1 -- 44
2020-06-16 18:00:00 26 16 Noroeste 33 Noroeste 0 956.2 -- 41
2020-06-16 17:00:00 24.8 14 Noroeste 34 Oeste 0 956.4 -- 44
2020-06-16 16:00:00 26.3 16 Noroeste 34 Oeste 0 956.6 -- 41
2020-06-16 15:00:00 26.1 15 Oeste 33 Oeste 0 956.9 -- 41
2020-06-16 14:00:00 26 15 Oeste 30 Oeste 0 957.3 -- 38
2020-06-16 13:00:00 24.9 13 Noroeste 24 Oeste 0 957.5 -- 37
2020-06-16 12:00:00 23 10 Oeste 22 Oeste 0 957.5 -- 44
2020-06-16 11:00:00 21.8 6 Norte 17 Norte 0 957.7 -- 47
2020-06-16 10:00:00 19.4 6 Norte 16 Oeste 0 957.8 -- 52
2020-06-16 09:00:00 17.3 0 Calma 12 Nordeste 0 957.5 -- 58
2020-06-16 08:00:00 14.8 5 Este 13 Noroeste 0 957.3 -- 70
2020-06-16 07:00:00 13.4 4 Noroeste 12 Noroeste 0 957.3 -- 78
2020-06-16 06:00:00 14.3 0 Calma 13 Noroeste 0 957 -- 74
2020-06-16 05:00:00 15.2 3 Noroeste 17 Noroeste 0 956.7 -- 69
2020-06-16 04:00:00 16.4 8 Noroeste 22 Oeste 0 957 -- 64
2020-06-16 03:00:00 16.4 4 Noroeste 18 Norte 0 957.2 -- 60
2020-06-16 02:00:00 16.1 4 Noroeste 13 Norte 0 957.1 -- 61
2020-06-16 01:00:00 15.3 4 Noroeste 9 Oeste 0 957.6 -- 62
2020-06-16 00:00:00 14.8 2 Este 6 Este 0 957.9 -- 67
2020-06-15 23:00:00 16.3 3 Este 5 Este 0 957.8 -- 65
2020-06-15 22:00:00 20 2 Este 7 Sur 0 957.6 -- 53
2020-06-15 21:00:00 25 2 Sudoeste 23 Noroeste 0 957.6 -- 37
2020-06-15 20:00:00 27.1 9 Oeste 22 Noroeste 0 957 -- 30
2020-06-15 19:00:00 27.7 6 Oeste 27 Oeste 0 956.9 -- 26
2020-06-15 18:00:00 27.3 13 Oeste 28 Oeste 0 957.3 -- 27
2020-06-15 17:00:00 27.5 9 Oeste 31 Noroeste 0 957.7 -- 31
2020-06-15 16:00:00 26.4 7 Sudoeste 26 Sudoeste 0 958.2 -- 32
2020-06-15 15:00:00 25.7 8 Oeste 24 Oeste 0 958.4 -- 37
2020-06-15 14:00:00 25.1 11 Oeste 28 Noroeste 0 959.2 -- 38
2020-06-15 13:00:00 23.8 11 Oeste 27 Oeste 0 959.2 -- 39
2020-06-15 12:00:00 22.8 12 Oeste 31 Oeste 0 959.6 -- 43
2020-06-15 11:00:00 21.3 2 Sudoeste 12 Este 0 959 -- 44
2020-06-15 10:00:00 19.4 5 Nordeste 13 Noroeste 0 959.2 -- 50
2020-06-15 09:00:00 16.5 4 Norte 10 Norte 0 958.9 -- 63
2020-06-15 08:00:00 12 2 Este 5 Este 0 959.1 -- 81
2020-06-15 07:00:00 9.9 3 Este 6 Nordeste 0 958.8 -- 87
2020-06-15 06:00:00 11.3 3 Sudeste 10 Oeste 0 958.5 -- 83
2020-06-15 05:00:00 13.3 4 Noroeste 15 Noroeste 0 958.2 -- 73
2020-06-15 04:00:00 13.6 4 Noroeste 14 Noroeste 0 958.5 -- 69
2020-06-15 03:00:00 12.3 4 Noroeste 11 Noroeste 0 958.2 -- 75
2020-06-15 02:00:00 12 3 Sudeste 7 Este 0 958.6 -- 85
2020-06-15 01:00:00 12.5 3 Este 5 Este 0 958.4 -- 81
2020-06-15 00:00:00 14.6 0 Calma 6 Oeste 0 958.3 -- 69